sensor_id;sensor_type;location;lat;lon;timestamp;temperature;humidity
47616;DHT22;69146;52.266;7.000;2023-04-24T00:00:14;10.60;99.90
47616;DHT22;69146;52.266;7.000;2023-04-24T00:03:00;10.50;99.90
47616;DHT22;69146;52.266;7.000;2023-04-24T00:05:46;10.50;99.90
47616;DHT22;69146;52.266;7.000;2023-04-24T00:08:31;10.50;99.90
47616;DHT22;69146;52.266;7.000;2023-04-24T00:11:16;10.60;99.90
47616;DHT22;69146;52.266;7.000;2023-04-24T00:14:01;10.60;99.90
47616;DHT22;69146;52.266;7.000;2023-04-24T00:16:46;10.60;99.90
47616;DHT22;69146;52.266;7.000;2023-04-24T00:19:32;10.60;99.90
47616;DHT22;69146;52.266;7.000;2023-04-24T00:22:17;10.60;99.90
47616;DHT22;69146;52.266;7.000;2023-04-24T00:25:03;10.70;99.90
47616;DHT22;69146;52.266;7.000;2023-04-24T00:27:48;10.60;99.90
47616;DHT22;69146;52.266;7.000;2023-04-24T00:30:32;10.60;99.90
47616;DHT22;69146;52.266;7.000;2023-04-24T00:33:17;10.60;99.90
47616;DHT22;69146;52.266;7.000;2023-04-24T00:36:04;10.60;99.90
47616;DHT22;69146;52.266;7.000;2023-04-24T00:38:48;10.60;99.90
47616;DHT22;69146;52.266;7.000;2023-04-24T00:41:34;10.60;99.90
47616;DHT22;69146;52.266;7.000;2023-04-24T00:44:19;10.60;99.90
47616;DHT22;69146;52.266;7.000;2023-04-24T00:47:04;10.60;99.90
47616;DHT22;69146;52.266;7.000;2023-04-24T00:49:48;10.60;99.90
47616;DHT22;69146;52.266;7.000;2023-04-24T00:52:35;10.60;99.90
47616;DHT22;69146;52.266;7.000;2023-04-24T00:55:20;10.60;99.90
47616;DHT22;69146;52.266;7.000;2023-04-24T00:58:05;10.60;99.90
47616;DHT22;69146;52.266;7.000;2023-04-24T01:00:50;10.60;99.90
47616;DHT22;69146;52.266;7.000;2023-04-24T01:03:40;10.60;99.90
47616;DHT22;69146;52.266;7.000;2023-04-24T01:06:27;10.60;99.90
47616;DHT22;69146;52.266;7.000;2023-04-24T01:09:15;10.60;99.90
47616;DHT22;69146;52.266;7.000;2023-04-24T01:12:03;10.60;99.90
47616;DHT22;69146;52.266;7.000;2023-04-24T01:14:48;10.60;99.90
47616;DHT22;69146;52.266;7.000;2023-04-24T01:17:33;10.60;99.90
47616;DHT22;69146;52.266;7.000;2023-04-24T01:20:18;10.60;99.90
47616;DHT22;69146;52.266;7.000;2023-04-24T01:23:05;10.50;99.90
47616;DHT22;69146;52.266;7.000;2023-04-24T01:25:50;10.50;99.90
47616;DHT22;69146;52.266;7.000;2023-04-24T01:28:36;10.50;99.90
47616;DHT22;69146;52.266;7.000;2023-04-24T01:31:21;10.50;99.90
47616;DHT22;69146;52.266;7.000;2023-04-24T01:34:08;10.50;99.90
47616;DHT22;69146;52.266;7.000;2023-04-24T01:36:54;10.50;99.90
47616;DHT22;69146;52.266;7.000;2023-04-24T01:39:40;10.50;99.90
47616;DHT22;69146;52.266;7.000;2023-04-24T01:42:25;10.50;99.90
47616;DHT22;69146;52.266;7.000;2023-04-24T01:45:11;10.50;99.90
47616;DHT22;69146;52.266;7.000;2023-04-24T01:48:00;10.50;99.90
47616;DHT22;69146;52.266;7.000;2023-04-24T01:50:48;10.50;99.90
47616;DHT22;69146;52.266;7.000;2023-04-24T01:53:33;10.40;99.90
47616;DHT22;69146;52.266;7.000;2023-04-24T01:56:19;10.50;99.90
47616;DHT22;69146;52.266;7.000;2023-04-24T01:59:05;10.40;99.90
47616;DHT22;69146;52.266;7.000;2023-04-24T02:01:51;10.40;99.90
47616;DHT22;69146;52.266;7.000;2023-04-24T02:04:38;10.50;99.90
47616;DHT22;69146;52.266;7.000;2023-04-24T02:07:24;10.50;99.90
47616;DHT22;69146;52.266;7.000;2023-04-24T02:10:10;10.50;99.90
47616;DHT22;69146;52.266;7.000;2023-04-24T02:12:57;10.50;99.90
47616;DHT22;69146;52.266;7.000;2023-04-24T02:15:44;10.50;99.90
47616;DHT22;69146;52.266;7.000;2023-04-24T02:18:29;10.50;99.90
47616;DHT22;69146;52.266;7.000;2023-04-24T02:21:17;10.50;99.90
47616;DHT22;69146;52.266;7.000;2023-04-24T02:24:01;10.50;99.90
47616;DHT22;69146;52.266;7.000;2023-04-24T02:26:47;10.50;99.90
47616;DHT22;69146;52.266;7.000;2023-04-24T02:29:33;10.50;99.90
47616;DHT22;69146;52.266;7.000;2023-04-24T02:32:18;10.50;99.90
47616;DHT22;69146;52.266;7.000;2023-04-24T02:35:04;10.50;99.90
47616;DHT22;69146;52.266;7.000;2023-04-24T02:37:49;10.50;99.90
47616;DHT22;69146;52.266;7.000;2023-04-24T02:40:33;10.50;99.90
47616;DHT22;69146;52.266;7.000;2023-04-24T02:43:18;10.50;99.90
47616;DHT22;69146;52.266;7.000;2023-04-24T02:46:05;10.40;99.90
47616;DHT22;69146;52.266;7.000;2023-04-24T02:48:50;10.30;99.90
47616;DHT22;69146;52.266;7.000;2023-04-24T02:51:36;10.30;99.90
47616;DHT22;69146;52.266;7.000;2023-04-24T02:54:25;10.30;99.90
47616;DHT22;69146;52.266;7.000;2023-04-24T02:57:10;10.20;99.90
47616;DHT22;69146;52.266;7.000;2023-04-24T02:59:55;10.10;99.90
47616;DHT22;69146;52.266;7.000;2023-04-24T03:02:41;10.10;99.90
47616;DHT22;69146;52.266;7.000;2023-04-24T03:05:26;10.00;99.90
47616;DHT22;69146;52.266;7.000;2023-04-24T03:08:11;10.00;99.90
47616;DHT22;69146;52.266;7.000;2023-04-24T03:10:56;9.90;99.90
47616;DHT22;69146;52.266;7.000;2023-04-24T03:13:41;9.90;99.90
47616;DHT22;69146;52.266;7.000;2023-04-24T03:16:26;9.90;99.90
47616;DHT22;69146;52.266;7.000;2023-04-24T03:19:12;9.90;99.90
47616;DHT22;69146;52.266;7.000;2023-04-24T03:21:58;9.90;99.90
47616;DHT22;69146;52.266;7.000;2023-04-24T03:24:42;9.80;99.90
47616;DHT22;69146;52.266;7.000;2023-04-24T03:27:27;9.80;99.90
47616;DHT22;69146;52.266;7.000;2023-04-24T03:30:13;9.80;99.90
47616;DHT22;69146;52.266;7.000;2023-04-24T03:32:57;9.80;99.90
47616;DHT22;69146;52.266;7.000;2023-04-24T03:35:44;9.80;99.90
47616;DHT22;69146;52.266;7.000;2023-04-24T03:38:32;9.80;99.90
47616;DHT22;69146;52.266;7.000;2023-04-24T03:41:23;9.70;99.90
47616;DHT22;69146;52.266;7.000;2023-04-24T03:44:08;9.70;99.90
47616;DHT22;69146;52.266;7.000;2023-04-24T03:46:53;9.80;99.90
47616;DHT22;69146;52.266;7.000;2023-04-24T03:49:38;9.80;99.90
47616;DHT22;69146;52.266;7.000;2023-04-24T03:52:25;9.80;99.90
47616;DHT22;69146;52.266;7.000;2023-04-24T03:55:10;9.80;99.90
47616;DHT22;69146;52.266;7.000;2023-04-24T03:57:57;9.80;99.90
47616;DHT22;69146;52.266;7.000;2023-04-24T04:00:42;9.80;99.90
47616;DHT22;69146;52.266;7.000;2023-04-24T04:03:29;9.80;99.90
47616;DHT22;69146;52.266;7.000;2023-04-24T04:06:13;9.80;99.90
47616;DHT22;69146;52.266;7.000;2023-04-24T04:09:00;9.80;99.90
47616;DHT22;69146;52.266;7.000;2023-04-24T04:11:47;9.80;99.90
47616;DHT22;69146;52.266;7.000;2023-04-24T04:14:32;9.80;99.90
47616;DHT22;69146;52.266;7.000;2023-04-24T04:17:17;9.80;99.90
47616;DHT22;69146;52.266;7.000;2023-04-24T04:20:02;9.80;99.90
47616;DHT22;69146;52.266;7.000;2023-04-24T04:22:51;9.90;99.90
47616;DHT22;69146;52.266;7.000;2023-04-24T04:25:38;9.90;99.90
47616;DHT22;69146;52.266;7.000;2023-04-24T04:28:23;9.90;99.90
47616;DHT22;69146;52.266;7.000;2023-04-24T04:31:09;9.80;99.90
47616;DHT22;69146;52.266;7.000;2023-04-24T04:33:56;9.80;99.90
47616;DHT22;69146;52.266;7.000;2023-04-24T04:36:41;9.70;99.90
47616;DHT22;69146;52.266;7.000;2023-04-24T04:39:28;9.70;99.90
47616;DHT22;69146;52.266;7.000;2023-04-24T04:42:15;9.70;99.90
47616;DHT22;69146;52.266;7.000;2023-04-24T04:45:00;9.70;99.90
47616;DHT22;69146;52.266;7.000;2023-04-24T04:47:46;9.70;99.90
47616;DHT22;69146;52.266;7.000;2023-04-24T04:50:32;9.70;99.90
47616;DHT22;69146;52.266;7.000;2023-04-24T04:53:17;9.70;99.90
47616;DHT22;69146;52.266;7.000;2023-04-24T04:56:01;9.80;99.90
47616;DHT22;69146;52.266;7.000;2023-04-24T04:58:48;9.70;99.90
47616;DHT22;69146;52.266;7.000;2023-04-24T05:01:39;9.70;99.90
47616;DHT22;69146;52.266;7.000;2023-04-24T05:04:25;9.70;99.90
47616;DHT22;69146;52.266;7.000;2023-04-24T05:07:10;9.70;99.90
47616;DHT22;69146;52.266;7.000;2023-04-24T05:09:55;9.80;99.90
47616;DHT22;69146;52.266;7.000;2023-04-24T05:12:40;9.70;99.90
47616;DHT22;69146;52.266;7.000;2023-04-24T05:15:26;9.80;99.90
47616;DHT22;69146;52.266;7.000;2023-04-24T05:18:11;9.80;99.90
47616;DHT22;69146;52.266;7.000;2023-04-24T05:20:56;9.70;99.90
47616;DHT22;69146;52.266;7.000;2023-04-24T05:23:41;9.80;99.90
47616;DHT22;69146;52.266;7.000;2023-04-24T05:26:28;9.80;99.90
47616;DHT22;69146;52.266;7.000;2023-04-24T05:29:13;9.80;99.90
47616;DHT22;69146;52.266;7.000;2023-04-24T05:32:00;9.90;99.90
47616;DHT22;69146;52.266;7.000;2023-04-24T05:34:47;9.80;99.90
47616;DHT22;69146;52.266;7.000;2023-04-24T05:37:32;9.90;99.90
47616;DHT22;69146;52.266;7.000;2023-04-24T05:40:24;9.80;99.90
47616;DHT22;69146;52.266;7.000;2023-04-24T05:43:08;9.80;99.90
47616;DHT22;69146;52.266;7.000;2023-04-24T05:45:54;9.80;99.90
47616;DHT22;69146;52.266;7.000;2023-04-24T05:48:40;9.80;99.90
47616;DHT22;69146;52.266;7.000;2023-04-24T05:51:25;9.70;99.90
47616;DHT22;69146;52.266;7.000;2023-04-24T05:54:10;9.70;99.90
47616;DHT22;69146;52.266;7.000;2023-04-24T05:56:58;9.70;99.90
47616;DHT22;69146;52.266;7.000;2023-04-24T05:59:47;9.70;99.90
47616;DHT22;69146;52.266;7.000;2023-04-24T06:02:31;9.60;99.90
47616;DHT22;69146;52.266;7.000;2023-04-24T06:05:18;9.70;99.90
47616;DHT22;69146;52.266;7.000;2023-04-24T06:08:03;9.70;99.90
47616;DHT22;69146;52.266;7.000;2023-04-24T06:10:48;9.60;99.90
47616;DHT22;69146;52.266;7.000;2023-04-24T06:13:34;9.60;99.90
47616;DHT22;69146;52.266;7.000;2023-04-24T06:16:19;9.60;99.90
47616;DHT22;69146;52.266;7.000;2023-04-24T06:19:04;9.60;99.90
47616;DHT22;69146;52.266;7.000;2023-04-24T06:21:51;9.60;99.90
47616;DHT22;69146;52.266;7.000;2023-04-24T06:24:39;9.60;99.90
47616;DHT22;69146;52.266;7.000;2023-04-24T06:27:27;9.70;99.90
47616;DHT22;69146;52.266;7.000;2023-04-24T06:30:12;9.70;99.90
47616;DHT22;69146;52.266;7.000;2023-04-24T06:32:57;9.80;99.90
47616;DHT22;69146;52.266;7.000;2023-04-24T06:35:42;9.80;99.90
47616;DHT22;69146;52.266;7.000;2023-04-24T06:38:29;9.90;99.90
47616;DHT22;69146;52.266;7.000;2023-04-24T06:41:14;9.90;99.90
47616;DHT22;69146;52.266;7.000;2023-04-24T06:43:59;10.10;99.90
47616;DHT22;69146;52.266;7.000;2023-04-24T06:46:44;10.20;99.90
47616;DHT22;69146;52.266;7.000;2023-04-24T06:49:29;10.20;99.90
47616;DHT22;69146;52.266;7.000;2023-04-24T06:52:14;10.20;99.90
47616;DHT22;69146;52.266;7.000;2023-04-24T06:55:05;10.20;99.90
47616;DHT22;69146;52.266;7.000;2023-04-24T06:57:53;10.30;99.90
47616;DHT22;69146;52.266;7.000;2023-04-24T07:00:38;10.30;99.90
47616;DHT22;69146;52.266;7.000;2023-04-24T07:03:23;10.30;99.90
47616;DHT22;69146;52.266;7.000;2023-04-24T07:06:08;10.40;99.90
47616;DHT22;69146;52.266;7.000;2023-04-24T07:08:55;10.40;99.90
47616;DHT22;69146;52.266;7.000;2023-04-24T07:11:41;10.40;99.90
47616;DHT22;69146;52.266;7.000;2023-04-24T07:14:26;10.30;99.90
47616;DHT22;69146;52.266;7.000;2023-04-24T07:17:11;10.00;99.90
47616;DHT22;69146;52.266;7.000;2023-04-24T07:19:57;9.90;99.90
47616;DHT22;69146;52.266;7.000;2023-04-24T07:22:45;9.80;99.90
47616;DHT22;69146;52.266;7.000;2023-04-24T07:25:43;9.70;99.90
47616;DHT22;69146;52.266;7.000;2023-04-24T07:28:33;9.60;99.90
47616;DHT22;69146;52.266;7.000;2023-04-24T07:31:20;9.50;99.90
47616;DHT22;69146;52.266;7.000;2023-04-24T07:34:05;9.40;99.90
47616;DHT22;69146;52.266;7.000;2023-04-24T07:36:50;9.30;99.90
47616;DHT22;69146;52.266;7.000;2023-04-24T07:39:35;9.30;99.90
47616;DHT22;69146;52.266;7.000;2023-04-24T07:42:20;9.20;99.90
47616;DHT22;69146;52.266;7.000;2023-04-24T07:45:07;9.10;99.90
47616;DHT22;69146;52.266;7.000;2023-04-24T07:47:52;9.20;99.90
47616;DHT22;69146;52.266;7.000;2023-04-24T07:50:37;9.10;99.90
47616;DHT22;69146;52.266;7.000;2023-04-24T07:53:22;9.10;99.90
47616;DHT22;69146;52.266;7.000;2023-04-24T07:56:07;9.10;99.90
47616;DHT22;69146;52.266;7.000;2023-04-24T07:58:53;9.00;99.90
47616;DHT22;69146;52.266;7.000;2023-04-24T08:01:40;9.00;99.90
47616;DHT22;69146;52.266;7.000;2023-04-24T08:04:25;9.10;99.90
47616;DHT22;69146;52.266;7.000;2023-04-24T08:07:13;9.10;99.90
47616;DHT22;69146;52.266;7.000;2023-04-24T08:09:58;9.10;99.90
47616;DHT22;69146;52.266;7.000;2023-04-24T08:12:44;9.10;99.90
47616;DHT22;69146;52.266;7.000;2023-04-24T08:15:28;9.00;99.90
47616;DHT22;69146;52.266;7.000;2023-04-24T08:18:15;9.00;99.90
47616;DHT22;69146;52.266;7.000;2023-04-24T08:21:00;9.00;99.90
47616;DHT22;69146;52.266;7.000;2023-04-24T08:23:46;8.90;99.90
47616;DHT22;69146;52.266;7.000;2023-04-24T08:26:31;8.90;99.90
47616;DHT22;69146;52.266;7.000;2023-04-24T08:29:18;8.90;99.90
47616;DHT22;69146;52.266;7.000;2023-04-24T08:32:03;8.90;99.90
47616;DHT22;69146;52.266;7.000;2023-04-24T08:34:50;9.00;99.90
47616;DHT22;69146;52.266;7.000;2023-04-24T08:37:37;9.00;99.90
47616;DHT22;69146;52.266;7.000;2023-04-24T08:40:27;9.00;99.90
47616;DHT22;69146;52.266;7.000;2023-04-24T08:43:15;9.10;99.90
47616;DHT22;69146;52.266;7.000;2023-04-24T08:46:01;9.10;99.90
47616;DHT22;69146;52.266;7.000;2023-04-24T08:48:46;9.10;99.90
47616;DHT22;69146;52.266;7.000;2023-04-24T08:51:32;9.20;99.90
47616;DHT22;69146;52.266;7.000;2023-04-24T08:54:18;9.30;99.90
47616;DHT22;69146;52.266;7.000;2023-04-24T08:57:03;9.20;99.90
47616;DHT22;69146;52.266;7.000;2023-04-24T08:59:48;9.30;99.90
47616;DHT22;69146;52.266;7.000;2023-04-24T09:02:36;9.30;99.90
47616;DHT22;69146;52.266;7.000;2023-04-24T09:05:25;9.30;99.90
47616;DHT22;69146;52.266;7.000;2023-04-24T09:08:13;9.30;99.90
47616;DHT22;69146;52.266;7.000;2023-04-24T09:10:58;9.40;99.90
47616;DHT22;69146;52.266;7.000;2023-04-24T09:13:48;9.50;99.90
47616;DHT22;69146;52.266;7.000;2023-04-24T09:16:33;9.50;99.90
47616;DHT22;69146;52.266;7.000;2023-04-24T09:19:19;9.60;99.90
47616;DHT22;69146;52.266;7.000;2023-04-24T09:22:06;9.60;99.90
47616;DHT22;69146;52.266;7.000;2023-04-24T09:25:02;9.60;99.90
47616;DHT22;69146;52.266;7.000;2023-04-24T09:27:48;9.60;99.90
47616;DHT22;69146;52.266;7.000;2023-04-24T09:30:33;9.60;99.90
47616;DHT22;69146;52.266;7.000;2023-04-24T09:33:20;9.60;99.90
47616;DHT22;69146;52.266;7.000;2023-04-24T09:36:05;9.60;99.90
47616;DHT22;69146;52.266;7.000;2023-04-24T09:38:59;9.50;99.90
47616;DHT22;69146;52.266;7.000;2023-04-24T09:41:49;9.50;99.90
47616;DHT22;69146;52.266;7.000;2023-04-24T09:44:36;9.40;99.90
47616;DHT22;69146;52.266;7.000;2023-04-24T09:47:21;9.30;99.90
47616;DHT22;69146;52.266;7.000;2023-04-24T09:50:10;9.20;99.90
47616;DHT22;69146;52.266;7.000;2023-04-24T09:53:02;9.10;99.90
47616;DHT22;69146;52.266;7.000;2023-04-24T09:55:48;9.00;99.90
47616;DHT22;69146;52.266;7.000;2023-04-24T09:58:36;9.00;99.90
47616;DHT22;69146;52.266;7.000;2023-04-24T10:01:30;8.90;99.90
47616;DHT22;69146;52.266;7.000;2023-04-24T10:04:16;8.80;99.90
47616;DHT22;69146;52.266;7.000;2023-04-24T10:07:03;8.70;99.90
47616;DHT22;69146;52.266;7.000;2023-04-24T10:09:51;8.70;99.90
47616;DHT22;69146;52.266;7.000;2023-04-24T10:12:36;8.70;99.90
47616;DHT22;69146;52.266;7.000;2023-04-24T10:15:23;8.70;99.90
47616;DHT22;69146;52.266;7.000;2023-04-24T10:18:10;8.70;99.90
47616;DHT22;69146;52.266;7.000;2023-04-24T10:20:56;8.70;99.90
47616;DHT22;69146;52.266;7.000;2023-04-24T10:23:42;8.70;99.90
47616;DHT22;69146;52.266;7.000;2023-04-24T10:26:27;8.80;99.90
47616;DHT22;69146;52.266;7.000;2023-04-24T10:29:14;8.70;99.90
47616;DHT22;69146;52.266;7.000;2023-04-24T10:32:01;8.80;99.90
47616;DHT22;69146;52.266;7.000;2023-04-24T10:34:47;8.80;99.90
47616;DHT22;69146;52.266;7.000;2023-04-24T10:37:38;8.80;99.90
47616;DHT22;69146;52.266;7.000;2023-04-24T10:40:27;8.90;99.90
47616;DHT22;69146;52.266;7.000;2023-04-24T10:43:18;9.00;99.90
47616;DHT22;69146;52.266;7.000;2023-04-24T10:46:04;9.00;99.90
47616;DHT22;69146;52.266;7.000;2023-04-24T10:48:54;9.00;99.90
47616;DHT22;69146;52.266;7.000;2023-04-24T10:51:45;9.00;99.90
47616;DHT22;69146;52.266;7.000;2023-04-24T10:54:35;9.10;99.90
47616;DHT22;69146;52.266;7.000;2023-04-24T10:57:28;9.10;99.90
47616;DHT22;69146;52.266;7.000;2023-04-24T11:00:24;9.10;99.90
47616;DHT22;69146;52.266;7.000;2023-04-24T11:03:23;9.20;99.90
47616;DHT22;69146;52.266;7.000;2023-04-24T11:06:13;9.10;99.90
47616;DHT22;69146;52.266;7.000;2023-04-24T11:09:03;9.00;99.90
47616;DHT22;69146;52.266;7.000;2023-04-24T11:11:50;9.00;99.90
47616;DHT22;69146;52.266;7.000;2023-04-24T11:15:00;8.90;99.90
47616;DHT22;69146;52.266;7.000;2023-04-24T11:17:45;8.90;99.90
47616;DHT22;69146;52.266;7.000;2023-04-24T11:20:30;8.80;99.90
47616;DHT22;69146;52.266;7.000;2023-04-24T11:23:17;8.70;99.90
47616;DHT22;69146;52.266;7.000;2023-04-24T11:26:13;8.70;99.90
47616;DHT22;69146;52.266;7.000;2023-04-24T11:29:07;8.60;99.90
47616;DHT22;69146;52.266;7.000;2023-04-24T11:31:52;8.70;99.90
47616;DHT22;69146;52.266;7.000;2023-04-24T11:34:38;8.80;99.90
47616;DHT22;69146;52.266;7.000;2023-04-24T11:37:25;8.90;99.90
47616;DHT22;69146;52.266;7.000;2023-04-24T11:40:13;9.00;99.90
47616;DHT22;69146;52.266;7.000;2023-04-24T11:43:04;9.00;99.90
47616;DHT22;69146;52.266;7.000;2023-04-24T11:45:50;9.10;99.90
47616;DHT22;69146;52.266;7.000;2023-04-24T11:48:35;9.00;99.90
47616;DHT22;69146;52.266;7.000;2023-04-24T11:51:26;9.00;99.90
47616;DHT22;69146;52.266;7.000;2023-04-24T11:54:13;8.90;99.90
47616;DHT22;69146;52.266;7.000;2023-04-24T11:57:04;8.80;99.90
47616;DHT22;69146;52.266;7.000;2023-04-24T11:59:49;8.80;99.90
47616;DHT22;69146;52.266;7.000;2023-04-24T12:02:34;8.80;99.90
47616;DHT22;69146;52.266;7.000;2023-04-24T12:05:23;8.80;99.90
47616;DHT22;69146;52.266;7.000;2023-04-24T12:08:08;8.80;99.90
47616;DHT22;69146;52.266;7.000;2023-04-24T12:10:53;8.80;99.90
47616;DHT22;69146;52.266;7.000;2023-04-24T12:13:39;8.80;99.90
47616;DHT22;69146;52.266;7.000;2023-04-24T12:16:27;8.80;99.90
47616;DHT22;69146;52.266;7.000;2023-04-24T12:19:12;8.90;99.90
47616;DHT22;69146;52.266;7.000;2023-04-24T12:22:06;8.80;99.90
47616;DHT22;69146;52.266;7.000;2023-04-24T12:25:01;8.90;99.90
47616;DHT22;69146;52.266;7.000;2023-04-24T12:27:51;8.90;99.90
47616;DHT22;69146;52.266;7.000;2023-04-24T12:30:41;9.00;99.90
47616;DHT22;69146;52.266;7.000;2023-04-24T12:33:26;9.00;99.90
47616;DHT22;69146;52.266;7.000;2023-04-24T12:36:12;9.00;99.90
47616;DHT22;69146;52.266;7.000;2023-04-24T12:38:57;9.00;99.90
47616;DHT22;69146;52.266;7.000;2023-04-24T12:41:50;9.10;99.90
47616;DHT22;69146;52.266;7.000;2023-04-24T12:44:39;9.20;99.90
47616;DHT22;69146;52.266;7.000;2023-04-24T12:47:26;9.20;99.90
47616;DHT22;69146;52.266;7.000;2023-04-24T12:50:12;9.10;99.90
47616;DHT22;69146;52.266;7.000;2023-04-24T12:52:59;9.10;99.90
47616;DHT22;69146;52.266;7.000;2023-04-24T12:55:45;9.20;99.90
47616;DHT22;69146;52.266;7.000;2023-04-24T12:58:31;9.20;99.90
47616;DHT22;69146;52.266;7.000;2023-04-24T13:01:16;9.30;99.90
47616;DHT22;69146;52.266;7.000;2023-04-24T13:04:02;9.60;99.90
47616;DHT22;69146;52.266;7.000;2023-04-24T13:06:47;10.00;99.90
47616;DHT22;69146;52.266;7.000;2023-04-24T13:09:34;10.30;99.90
47616;DHT22;69146;52.266;7.000;2023-04-24T13:12:20;10.30;99.90
47616;DHT22;69146;52.266;7.000;2023-04-24T13:15:08;10.20;99.90
47616;DHT22;69146;52.266;7.000;2023-04-24T13:17:53;10.00;99.90
47616;DHT22;69146;52.266;7.000;2023-04-24T13:20:39;9.70;99.90
47616;DHT22;69146;52.266;7.000;2023-04-24T13:23:33;9.50;99.90
47616;DHT22;69146;52.266;7.000;2023-04-24T13:26:19;9.30;99.90
47616;DHT22;69146;52.266;7.000;2023-04-24T13:29:04;9.20;99.90
47616;DHT22;69146;52.266;7.000;2023-04-24T13:31:52;9.10;99.90
47616;DHT22;69146;52.266;7.000;2023-04-24T13:34:41;9.10;99.90
47616;DHT22;69146;52.266;7.000;2023-04-24T13:37:27;9.20;99.90
47616;DHT22;69146;52.266;7.000;2023-04-24T13:40:12;9.30;99.90
47616;DHT22;69146;52.266;7.000;2023-04-24T13:42:57;9.40;99.90
47616;DHT22;69146;52.266;7.000;2023-04-24T13:45:42;9.60;99.90
47616;DHT22;69146;52.266;7.000;2023-04-24T13:48:27;9.50;99.90
47616;DHT22;69146;52.266;7.000;2023-04-24T13:51:11;9.40;99.90
47616;DHT22;69146;52.266;7.000;2023-04-24T13:53:58;9.40;99.90
47616;DHT22;69146;52.266;7.000;2023-04-24T13:56:44;9.40;99.90
47616;DHT22;69146;52.266;7.000;2023-04-24T13:59:28;9.30;99.90
47616;DHT22;69146;52.266;7.000;2023-04-24T14:02:13;9.20;99.90
47616;DHT22;69146;52.266;7.000;2023-04-24T14:04:58;9.00;99.90
47616;DHT22;69146;52.266;7.000;2023-04-24T14:07:43;8.90;99.90
47616;DHT22;69146;52.266;7.000;2023-04-24T14:10:29;9.00;99.90
47616;DHT22;69146;52.266;7.000;2023-04-24T14:13:14;9.30;99.90
47616;DHT22;69146;52.266;7.000;2023-04-24T14:16:00;9.70;99.90
47616;DHT22;69146;52.266;7.000;2023-04-24T14:18:47;10.30;99.90
47616;DHT22;69146;52.266;7.000;2023-04-24T14:21:32;10.40;99.90
47616;DHT22;69146;52.266;7.000;2023-04-24T14:24:17;10.40;99.90
47616;DHT22;69146;52.266;7.000;2023-04-24T14:27:03;10.20;99.90
47616;DHT22;69146;52.266;7.000;2023-04-24T14:29:48;10.30;99.90
47616;DHT22;69146;52.266;7.000;2023-04-24T14:32:33;10.40;99.90
47616;DHT22;69146;52.266;7.000;2023-04-24T14:35:19;10.60;99.90
47616;DHT22;69146;52.266;7.000;2023-04-24T14:38:03;10.80;99.90
47616;DHT22;69146;52.266;7.000;2023-04-24T14:40:50;11.30;99.90
47616;DHT22;69146;52.266;7.000;2023-04-24T14:43:39;11.90;99.90
47616;DHT22;69146;52.266;7.000;2023-04-24T14:46:23;12.30;99.90
47616;DHT22;69146;52.266;7.000;2023-04-24T14:49:08;12.20;99.90
47616;DHT22;69146;52.266;7.000;2023-04-24T14:51:54;11.90;99.90
47616;DHT22;69146;52.266;7.000;2023-04-24T14:54:39;11.70;99.90
47616;DHT22;69146;52.266;7.000;2023-04-24T14:57:24;11.20;99.90
47616;DHT22;69146;52.266;7.000;2023-04-24T15:00:11;10.70;99.90
47616;DHT22;69146;52.266;7.000;2023-04-24T15:02:56;10.10;99.90
47616;DHT22;69146;52.266;7.000;2023-04-24T15:05:41;9.50;99.90
47616;DHT22;69146;52.266;7.000;2023-04-24T15:08:26;9.00;99.90
47616;DHT22;69146;52.266;7.000;2023-04-24T15:11:11;8.70;99.90
47616;DHT22;69146;52.266;7.000;2023-04-24T15:13:56;8.50;99.90
47616;DHT22;69146;52.266;7.000;2023-04-24T15:16:42;8.40;99.90
47616;DHT22;69146;52.266;7.000;2023-04-24T15:19:27;8.30;99.90
47616;DHT22;69146;52.266;7.000;2023-04-24T15:22:13;8.30;99.90
47616;DHT22;69146;52.266;7.000;2023-04-24T15:24:58;8.30;99.90
47616;DHT22;69146;52.266;7.000;2023-04-24T15:27:44;8.40;99.90
47616;DHT22;69146;52.266;7.000;2023-04-24T15:30:30;8.60;99.90
47616;DHT22;69146;52.266;7.000;2023-04-24T15:33:16;9.10;99.90
47616;DHT22;69146;52.266;7.000;2023-04-24T15:36:01;9.20;99.90
47616;DHT22;69146;52.266;7.000;2023-04-24T15:38:47;9.20;99.90
47616;DHT22;69146;52.266;7.000;2023-04-24T15:41:32;9.50;99.90
47616;DHT22;69146;52.266;7.000;2023-04-24T15:44:17;9.60;99.90
47616;DHT22;69146;52.266;7.000;2023-04-24T15:47:01;9.70;99.90
47616;DHT22;69146;52.266;7.000;2023-04-24T15:49:48;10.40;99.90
47616;DHT22;69146;52.266;7.000;2023-04-24T15:52:33;11.10;99.90
47616;DHT22;69146;52.266;7.000;2023-04-24T15:55:18;11.40;99.90
47616;DHT22;69146;52.266;7.000;2023-04-24T15:58:03;11.00;99.90
47616;DHT22;69146;52.266;7.000;2023-04-24T16:00:48;10.60;99.90
47616;DHT22;69146;52.266;7.000;2023-04-24T16:03:42;10.30;99.90
47616;DHT22;69146;52.266;7.000;2023-04-24T16:06:30;10.10;99.90
47616;DHT22;69146;52.266;7.000;2023-04-24T16:09:15;10.00;99.90
47616;DHT22;69146;52.266;7.000;2023-04-24T16:12:00;10.10;99.90
47616;DHT22;69146;52.266;7.000;2023-04-24T16:14:46;10.10;99.90
47616;DHT22;69146;52.266;7.000;2023-04-24T16:17:30;10.40;99.90
47616;DHT22;69146;52.266;7.000;2023-04-24T16:20:15;10.90;99.90
47616;DHT22;69146;52.266;7.000;2023-04-24T16:23:01;11.00;99.90
47616;DHT22;69146;52.266;7.000;2023-04-24T16:25:46;10.70;99.90
47616;DHT22;69146;52.266;7.000;2023-04-24T16:28:31;10.40;99.90
47616;DHT22;69146;52.266;7.000;2023-04-24T16:31:16;10.10;99.90
47616;DHT22;69146;52.266;7.000;2023-04-24T16:34:01;9.90;99.90
47616;DHT22;69146;52.266;7.000;2023-04-24T16:36:46;9.80;99.90
47616;DHT22;69146;52.266;7.000;2023-04-24T16:39:36;9.70;99.90
47616;DHT22;69146;52.266;7.000;2023-04-24T16:42:30;9.70;99.90
47616;DHT22;69146;52.266;7.000;2023-04-24T16:45:15;9.60;99.90
47616;DHT22;69146;52.266;7.000;2023-04-24T16:48:00;9.60;99.90
47616;DHT22;69146;52.266;7.000;2023-04-24T16:50:45;9.60;99.90
47616;DHT22;69146;52.266;7.000;2023-04-24T16:53:30;9.60;99.90
47616;DHT22;69146;52.266;7.000;2023-04-24T16:56:18;9.60;99.90
47616;DHT22;69146;52.266;7.000;2023-04-24T16:59:04;9.60;99.90
47616;DHT22;69146;52.266;7.000;2023-04-24T17:01:49;9.50;99.90
47616;DHT22;69146;52.266;7.000;2023-04-24T17:04:33;9.50;99.90
47616;DHT22;69146;52.266;7.000;2023-04-24T17:07:23;9.60;99.90
47616;DHT22;69146;52.266;7.000;2023-04-24T17:10:08;9.60;99.90
47616;DHT22;69146;52.266;7.000;2023-04-24T17:12:55;9.60;99.90
47616;DHT22;69146;52.266;7.000;2023-04-24T17:15:41;9.60;99.90
47616;DHT22;69146;52.266;7.000;2023-04-24T17:18:29;9.60;99.90
47616;DHT22;69146;52.266;7.000;2023-04-24T17:21:14;9.60;99.90
47616;DHT22;69146;52.266;7.000;2023-04-24T17:24:00;9.60;99.90
47616;DHT22;69146;52.266;7.000;2023-04-24T17:26:50;9.70;99.90
47616;DHT22;69146;52.266;7.000;2023-04-24T17:29:39;9.70;99.90
47616;DHT22;69146;52.266;7.000;2023-04-24T17:32:29;9.70;99.90
47616;DHT22;69146;52.266;7.000;2023-04-24T17:35:15;9.70;99.90
47616;DHT22;69146;52.266;7.000;2023-04-24T17:38:04;9.70;99.90
47616;DHT22;69146;52.266;7.000;2023-04-24T17:40:58;9.70;99.90
47616;DHT22;69146;52.266;7.000;2023-04-24T17:44:09;9.60;99.90